createdAt,value
2023-05-22T00:00:36.084Z,4.28
2023-05-22T00:03:34.362Z,4.20
2023-05-22T00:06:34.511Z,4.30
2023-05-22T00:09:32.303Z,4.00
2023-05-22T00:12:30.081Z,4.32
2023-05-22T00:15:27.861Z,4.40
2023-05-22T00:18:27.507Z,4.15
2023-05-22T00:21:28.344Z,4.40
2023-05-22T00:24:26.153Z,4.30
2023-05-22T00:27:23.973Z,4.55
2023-05-22T00:30:21.790Z,4.65
2023-05-22T00:33:19.615Z,4.10
2023-05-22T00:36:19.035Z,4.57
2023-05-22T00:39:17.233Z,3.90
2023-05-22T00:42:14.937Z,4.15
2023-05-22T00:45:14.008Z,4.20
2023-05-22T00:48:12.848Z,4.10
2023-05-22T00:51:11.002Z,3.70
2023-05-22T00:54:09.439Z,3.85
2023-05-22T00:57:07.756Z,3.58
2023-05-22T01:00:06.979Z,3.58
2023-05-22T01:03:08.434Z,3.60
2023-05-22T01:06:06.420Z,3.60
2023-05-22T01:09:05.118Z,3.83
2023-05-22T01:12:19.631Z,3.35
2023-05-22T01:15:34.357Z,3.30
2023-05-22T01:18:52.960Z,2.78
2023-05-22T01:22:22.439Z,2.70
2023-05-22T01:25:41.699Z,3.00
2023-05-22T01:28:56.793Z,3.25
2023-05-22T01:31:58.694Z,3.60
2023-05-22T01:35:02.815Z,3.40
2023-05-22T01:38:02.596Z,3.22
2023-05-22T01:41:00.664Z,4.05
2023-05-22T01:43:58.464Z,3.30
2023-05-22T01:47:00.951Z,3.60
2023-05-22T01:49:58.674Z,3.38
2023-05-22T01:53:13.741Z,3.50
2023-05-22T01:56:16.116Z,3.20
2023-05-22T01:59:33.249Z,3.67
2023-05-22T02:02:33.457Z,3.78
2023-05-22T02:05:36.547Z,3.70
2023-05-22T02:08:36.532Z,3.67
2023-05-22T02:11:36.128Z,3.80
2023-05-22T02:14:35.584Z,3.88
2023-05-22T02:17:40.996Z,3.80
2023-05-22T02:20:39.322Z,4.57
2023-05-22T02:23:38.693Z,4.43
2023-05-22T02:26:37.725Z,4.60
2023-05-22T02:29:35.874Z,3.88
2023-05-22T02:32:34.058Z,4.03
2023-05-22T02:35:32.428Z,4.78
2023-05-22T02:38:30.382Z,3.95
2023-05-22T02:41:28.571Z,3.83
2023-05-22T02:44:26.511Z,4.03
2023-05-22T02:47:24.625Z,4.25
2023-05-22T02:50:22.585Z,4.03
2023-05-22T02:53:20.990Z,4.00
2023-05-22T02:56:19.400Z,4.00
2023-05-22T02:59:17.539Z,4.97
2023-05-22T03:02:16.029Z,5.65
2023-05-22T03:05:18.372Z,6.43
2023-05-22T03:08:16.522Z,4.20
2023-05-22T03:11:14.635Z,4.43
2023-05-22T03:14:12.607Z,4.60
2023-05-22T03:17:10.700Z,5.20
2023-05-22T03:20:09.402Z,5.28
2023-05-22T03:23:07.515Z,5.03
2023-05-22T03:26:05.453Z,3.58
2023-05-22T03:29:03.611Z,3.90
2023-05-22T03:32:04.011Z,6.03
2023-05-22T03:35:02.145Z,5.57
2023-05-22T03:38:00.149Z,5.00
2023-05-22T03:40:58.263Z,4.38
2023-05-22T03:43:56.271Z,4.13
2023-05-22T03:46:54.486Z,5.30
2023-05-22T03:49:52.449Z,9.55
2023-05-22T03:52:50.577Z,11.85
2023-05-22T03:55:48.511Z,12.45
2023-05-22T03:58:46.637Z,11.48
2023-05-22T04:01:47.074Z,12.73
2023-05-22T04:04:46.958Z,12.18
2023-05-22T04:07:45.027Z,11.68
2023-05-22T04:10:43.232Z,12.77
2023-05-22T04:13:41.241Z,11.77
2023-05-22T04:16:39.361Z,12.00
2023-05-22T04:19:37.394Z,8.25
2023-05-22T04:22:35.505Z,9.15
2023-05-22T04:25:34.908Z,7.38
2023-05-22T04:28:36.049Z,9.55
2023-05-22T04:31:34.084Z,7.63
2023-05-22T04:34:32.766Z,8.13
2023-05-22T04:37:32.271Z,6.32
2023-05-22T04:40:31.096Z,6.13
2023-05-22T04:43:30.441Z,8.45
2023-05-22T04:46:29.389Z,7.65
2023-05-22T04:49:27.478Z,7.30
2023-05-22T04:52:25.798Z,15.07
2023-05-22T04:55:23.763Z,7.80
2023-05-22T04:58:22.576Z,7.30
2023-05-22T05:01:20.643Z,6.63
2023-05-22T05:04:18.942Z,5.95
2023-05-22T05:07:18.198Z,9.55
2023-05-22T05:10:16.808Z,9.15
2023-05-22T05:13:14.780Z,7.70
2023-05-22T05:16:13.097Z,6.82
2023-05-22T05:19:11.190Z,11.98
2023-05-22T05:22:09.286Z,12.45
2023-05-22T05:25:09.526Z,11.48
2023-05-22T05:28:12.303Z,9.70
2023-05-22T05:31:10.673Z,8.65
2023-05-22T05:34:08.830Z,6.80
2023-05-22T05:37:06.989Z,10.50
2023-05-22T05:40:07.813Z,11.50
2023-05-22T05:43:08.060Z,9.60
2023-05-22T05:46:07.346Z,11.90
2023-05-22T05:49:10.572Z,9.48
2023-05-22T05:52:08.960Z,8.55
2023-05-22T05:55:07.240Z,7.10
2023-05-22T05:58:05.440Z,7.22
2023-05-22T06:01:03.412Z,13.02
2023-05-22T06:04:03.844Z,7.65
2023-05-22T06:07:02.403Z,12.43
2023-05-22T06:10:00.510Z,14.82
2023-05-22T06:12:58.656Z,10.93
2023-05-22T06:15:58.779Z,9.70
2023-05-22T06:19:00.161Z,12.30
2023-05-22T06:21:58.677Z,11.27
2023-05-22T06:24:56.722Z,13.48
2023-05-22T06:27:54.862Z,19.10
2023-05-22T06:30:52.819Z,15.40
2023-05-22T06:33:51.664Z,25.30
2023-05-22T06:36:51.125Z,21.85
2023-05-22T06:39:49.254Z,15.30
2023-05-22T06:42:47.229Z,16.70
2023-05-22T06:45:45.493Z,17.27
2023-05-22T06:48:43.476Z,18.83
2023-05-22T06:51:41.431Z,18.30
2023-05-22T06:54:43.242Z,21.88
2023-05-22T06:57:41.050Z,18.37
2023-05-22T07:00:38.905Z,17.92
2023-05-22T07:03:37.058Z,18.08
2023-05-22T07:06:39.387Z,18.90
2023-05-22T07:09:37.206Z,19.02
2023-05-22T07:12:34.887Z,18.48
2023-05-22T07:15:32.646Z,20.20
2023-05-22T07:18:30.404Z,17.23
2023-05-22T07:21:30.751Z,19.77
2023-05-22T07:24:28.530Z,22.00
2023-05-22T07:27:26.308Z,21.83
2023-05-22T07:30:24.413Z,19.45
2023-05-22T07:33:22.261Z,16.83
2023-05-22T07:36:21.398Z,17.05
2023-05-22T07:39:19.223Z,20.45
2023-05-22T07:42:17.043Z,17.75
2023-05-22T07:45:14.959Z,17.60
2023-05-22T07:48:12.731Z,19.05
2023-05-22T07:51:10.831Z,27.60
2023-05-22T07:54:08.711Z,22.20
2023-05-22T07:57:08.702Z,21.40
2023-05-22T08:00:10.396Z,23.02
2023-05-22T08:03:08.345Z,18.70
2023-05-22T08:06:06.397Z,21.98
2023-05-22T08:09:05.675Z,17.15
2023-05-22T08:12:03.736Z,16.10
2023-05-22T08:15:01.660Z,14.88
2023-05-22T08:17:59.594Z,11.43
2023-05-22T08:20:57.601Z,17.23
2023-05-22T08:23:55.399Z,14.43
2023-05-22T08:26:53.226Z,13.07
2023-05-22T08:29:52.532Z,19.48
2023-05-22T08:32:50.333Z,24.02
2023-05-22T08:35:48.056Z,21.48
2023-05-22T08:38:45.981Z,23.67
2023-05-22T08:41:44.297Z,24.17
2023-05-22T08:44:42.262Z,21.20
2023-05-22T08:47:41.579Z,19.95
2023-05-22T08:50:44.048Z,19.05
2023-05-22T08:53:44.513Z,17.02
2023-05-22T08:56:52.850Z,20.20
2023-05-22T08:59:53.980Z,16.58
2023-05-22T09:02:52.925Z,18.30
2023-05-22T09:05:50.888Z,20.20
2023-05-22T09:08:50.703Z,20.38
2023-05-22T09:11:51.222Z,19.75
2023-05-22T09:14:49.053Z,21.00
2023-05-22T09:17:47.000Z,21.05
2023-05-22T09:20:44.940Z,19.98
2023-05-22T09:23:42.731Z,21.52
2023-05-22T09:26:41.203Z,19.50
2023-05-22T09:29:57.056Z,18.80
2023-05-22T09:32:57.579Z,18.15
2023-05-22T09:35:56.175Z,18.10
2023-05-22T09:38:55.291Z,16.75
2023-05-22T09:41:53.172Z,14.82
2023-05-22T09:44:52.332Z,17.35
2023-05-22T09:47:51.398Z,16.08
2023-05-22T09:50:50.960Z,12.38
2023-05-22T09:53:50.496Z,13.27
2023-05-22T09:56:51.384Z,12.00
2023-05-22T09:59:54.690Z,11.27
2023-05-22T10:03:05.813Z,11.23
2023-05-22T10:06:04.412Z,9.18
2023-05-22T10:09:06.301Z,9.93
2023-05-22T10:12:07.752Z,10.60
2023-05-22T10:15:08.038Z,12.43
2023-05-22T10:18:06.847Z,12.25
2023-05-22T10:21:05.007Z,13.40
2023-05-22T10:24:04.057Z,11.80
2023-05-22T10:27:02.166Z,11.55
2023-05-22T10:30:13.999Z,10.98
2023-05-22T10:33:19.980Z,11.50
2023-05-22T10:36:31.968Z,8.55
2023-05-22T10:39:51.514Z,9.13
2023-05-22T10:42:49.448Z,11.15
2023-05-22T10:45:48.553Z,12.55
2023-05-22T10:48:48.832Z,9.32
2023-05-22T10:51:46.710Z,8.45
2023-05-22T10:54:45.793Z,8.32
2023-05-22T10:57:43.719Z,9.05
2023-05-22T11:00:41.908Z,10.48
2023-05-22T11:03:58.018Z,12.35
2023-05-22T11:07:05.815Z,11.32
2023-05-22T11:10:03.997Z,11.50
2023-05-22T11:13:12.894Z,10.15
2023-05-22T11:16:11.015Z,9.32
2023-05-22T11:19:22.565Z,9.10
2023-05-22T11:22:21.868Z,9.10
2023-05-22T11:25:20.755Z,10.23
2023-05-22T11:28:19.243Z,8.50
2023-05-22T11:31:19.219Z,9.93
2023-05-22T11:34:17.310Z,25.52
2023-05-22T11:37:16.635Z,9.15
2023-05-22T11:40:17.843Z,8.38
2023-05-22T11:43:15.882Z,9.20
2023-05-22T11:46:14.669Z,10.07
2023-05-22T11:49:13.693Z,10.00
2023-05-22T11:52:12.158Z,11.00
2023-05-22T11:55:11.571Z,15.13
2023-05-22T11:58:09.431Z,12.52
2023-05-22T12:01:07.452Z,22.20
2023-05-22T12:04:06.247Z,23.35
2023-05-22T12:07:04.584Z,10.60
2023-05-22T12:10:04.258Z,8.48
2023-05-22T12:13:02.204Z,9.88
2023-05-22T12:16:01.575Z,12.23
2023-05-22T12:18:59.454Z,9.63
2023-05-22T12:21:57.997Z,11.23
2023-05-22T12:24:56.105Z,11.10
2023-05-22T12:27:53.974Z,10.88
2023-05-22T12:30:56.409Z,10.40
2023-05-22T12:33:55.554Z,9.52
2023-05-22T12:36:53.346Z,7.57
2023-05-22T12:40:00.135Z,8.88
2023-05-22T12:42:58.834Z,20.85
2023-05-22T12:45:56.735Z,10.85
2023-05-22T12:48:55.878Z,10.38
2023-05-22T12:51:53.757Z,7.72
2023-05-22T12:54:51.637Z,7.88
2023-05-22T12:57:49.495Z,8.40
2023-05-22T13:00:47.281Z,7.72
2023-05-22T13:03:46.559Z,9.52
2023-05-22T13:06:44.278Z,7.75
2023-05-22T13:09:42.377Z,7.30
2023-05-22T13:12:40.579Z,6.70
2023-05-22T13:15:38.805Z,8.25
2023-05-22T13:18:36.941Z,7.40
2023-05-22T13:21:35.091Z,9.25
2023-05-22T13:24:33.007Z,7.97
2023-05-22T13:27:33.538Z,7.38
2023-05-22T13:30:32.717Z,7.45
2023-05-22T13:33:30.781Z,6.80
2023-05-22T13:36:28.646Z,8.18
2023-05-22T13:39:29.601Z,7.43
2023-05-22T13:42:27.606Z,10.35
2023-05-22T13:45:25.663Z,7.60
2023-05-22T13:48:23.618Z,8.77
2023-05-22T13:51:21.630Z,7.40
2023-05-22T13:54:19.509Z,8.68
2023-05-22T13:57:17.566Z,9.68
2023-05-22T14:00:15.862Z,9.85
2023-05-22T14:03:18.038Z,9.55
2023-05-22T14:06:16.477Z,9.57
2023-05-22T14:09:14.510Z,8.68
2023-05-22T14:12:12.380Z,8.00
2023-05-22T14:15:10.866Z,7.95
2023-05-22T14:18:12.107Z,8.55
2023-05-22T14:21:10.149Z,8.38
2023-05-22T14:24:08.167Z,8.02
2023-05-22T14:27:06.488Z,8.13
2023-05-22T14:30:04.830Z,7.35
2023-05-22T14:33:02.888Z,7.72
2023-05-22T14:36:00.811Z,6.53
2023-05-22T14:38:58.959Z,8.20
2023-05-22T14:41:58.400Z,9.38
2023-05-22T14:44:56.416Z,9.50
2023-05-22T14:47:54.964Z,9.80
2023-05-22T14:50:54.957Z,8.88
2023-05-22T14:53:52.867Z,8.77
2023-05-22T14:56:51.031Z,9.10
2023-05-22T14:59:49.058Z,8.85
2023-05-22T15:02:47.259Z,9.38
2023-05-22T15:05:45.388Z,9.70
2023-05-22T15:08:43.384Z,9.75
2023-05-22T15:11:46.043Z,10.18
2023-05-22T15:14:44.112Z,9.32
2023-05-22T15:17:43.070Z,9.55
2023-05-22T15:20:41.304Z,9.35
2023-05-22T15:23:39.167Z,9.27
2023-05-22T15:26:37.768Z,10.00
2023-05-22T15:29:35.638Z,13.25
2023-05-22T15:32:34.491Z,10.45
2023-05-22T15:35:32.865Z,10.55
2023-05-22T15:38:31.050Z,8.68
2023-05-22T15:41:29.084Z,7.70
2023-05-22T15:44:27.088Z,8.38
2023-05-22T15:47:25.559Z,7.43
2023-05-22T15:50:23.584Z,7.97
2023-05-22T15:53:22.549Z,7.60
2023-05-22T15:56:20.540Z,7.55
2023-05-22T15:59:18.394Z,7.50
2023-05-22T16:02:16.530Z,7.57
2023-05-22T16:05:14.532Z,7.80
2023-05-22T16:08:12.899Z,5.95
2023-05-22T16:11:10.814Z,6.53
2023-05-22T16:14:09.050Z,6.95
2023-05-22T16:17:06.978Z,6.28
2023-05-22T16:20:06.145Z,6.25
2023-05-22T16:23:04.133Z,6.10
2023-05-22T16:26:02.373Z,6.47
2023-05-22T16:29:00.401Z,6.25
2023-05-22T16:31:58.668Z,6.03
2023-05-22T16:34:56.653Z,6.07
2023-05-22T16:37:54.748Z,5.05
2023-05-22T16:40:53.486Z,4.97
2023-05-22T16:43:51.800Z,7.78
2023-05-22T16:46:50.456Z,7.15
2023-05-22T16:49:51.060Z,6.15
2023-05-22T16:52:49.031Z,6.13
2023-05-22T16:55:47.195Z,5.25
2023-05-22T16:58:45.749Z,6.63
2023-05-22T17:01:44.840Z,5.82
2023-05-22T17:04:43.004Z,5.53
2023-05-22T17:07:41.096Z,5.53
2023-05-22T17:10:39.177Z,5.57
2023-05-22T17:13:37.261Z,4.72
2023-05-22T17:16:35.348Z,5.05
2023-05-22T17:19:33.606Z,4.70
2023-05-22T17:22:31.655Z,4.30
2023-05-22T17:25:29.821Z,4.25
2023-05-22T17:28:27.793Z,4.45
2023-05-22T17:31:26.448Z,4.32
2023-05-22T17:34:24.856Z,4.20
2023-05-22T17:37:22.945Z,4.20
2023-05-22T17:40:21.108Z,4.47
2023-05-22T17:43:20.567Z,4.28
2023-05-22T17:46:18.734Z,4.57
2023-05-22T17:49:17.164Z,4.00
2023-05-22T17:52:16.089Z,4.18
2023-05-22T17:55:14.194Z,4.80
2023-05-22T17:58:12.350Z,4.60
2023-05-22T18:01:10.502Z,4.53
2023-05-22T18:04:08.808Z,4.55
2023-05-22T18:07:07.102Z,4.78
2023-05-22T18:10:05.838Z,4.20
2023-05-22T18:13:03.970Z,3.80
2023-05-22T18:16:04.071Z,4.03
2023-05-22T18:19:02.300Z,4.30
2023-05-22T18:22:00.440Z,4.60
2023-05-22T18:24:58.561Z,4.53
2023-05-22T18:27:56.516Z,3.97
2023-05-22T18:30:54.997Z,4.60
2023-05-22T18:33:53.306Z,4.15
2023-05-22T18:36:51.461Z,4.53
2023-05-22T18:39:49.441Z,3.97
2023-05-22T18:42:47.568Z,4.20
2023-05-22T18:45:45.549Z,4.20
2023-05-22T18:48:43.664Z,3.97
2023-05-22T18:51:41.859Z,4.10
2023-05-22T18:54:40.028Z,4.15
2023-05-22T18:57:38.143Z,3.70
2023-05-22T19:00:36.364Z,4.25
2023-05-22T19:03:34.693Z,4.00
2023-05-22T19:06:33.177Z,3.90
2023-05-22T19:09:31.239Z,4.25
2023-05-22T19:12:32.369Z,4.28
2023-05-22T19:15:30.349Z,3.70
2023-05-22T19:18:29.059Z,3.90
2023-05-22T19:21:27.310Z,3.88
2023-05-22T19:24:27.109Z,4.05
2023-05-22T19:27:25.208Z,3.47
2023-05-22T19:30:24.397Z,4.10
2023-05-22T19:33:25.958Z,3.83
2023-05-22T19:36:24.074Z,4.10
2023-05-22T19:39:22.063Z,3.90
2023-05-22T19:42:22.536Z,4.05
2023-05-22T19:45:20.627Z,3.78
2023-05-22T19:48:18.760Z,3.88
2023-05-22T19:51:17.218Z,3.75
2023-05-22T19:54:15.493Z,4.13
2023-05-22T19:57:13.429Z,4.10
2023-05-22T20:00:12.701Z,3.65
2023-05-22T20:03:10.814Z,4.25
2023-05-22T20:06:08.985Z,4.65
2023-05-22T20:09:07.010Z,3.65
2023-05-22T20:12:05.182Z,3.72
2023-05-22T20:15:04.601Z,3.60
2023-05-22T20:18:03.226Z,3.80
2023-05-22T20:21:01.256Z,3.50
2023-05-22T20:23:59.838Z,3.80
2023-05-22T20:26:58.177Z,3.63
2023-05-22T20:29:58.145Z,4.07
2023-05-22T20:32:58.078Z,3.75
2023-05-22T20:35:56.233Z,3.95
2023-05-22T20:38:54.838Z,3.75
2023-05-22T20:41:52.963Z,3.90
2023-05-22T20:44:53.128Z,4.03
2023-05-22T20:47:51.350Z,4.10
2023-05-22T20:50:51.106Z,3.95
2023-05-22T20:53:50.534Z,3.70
2023-05-22T20:56:48.592Z,3.70
2023-05-22T20:59:46.662Z,3.75
2023-05-22T21:02:44.772Z,4.25
2023-05-22T21:05:43.796Z,3.50
2023-05-22T21:08:41.827Z,4.35
2023-05-22T21:11:39.935Z,3.97
2023-05-22T21:14:37.942Z,3.80
2023-05-22T21:17:36.578Z,3.50
2023-05-22T21:20:34.583Z,4.13
2023-05-22T21:23:32.645Z,3.58
2023-05-22T21:26:30.564Z,3.92
2023-05-22T21:29:30.567Z,3.83
2023-05-22T21:32:28.555Z,3.83
2023-05-22T21:35:26.699Z,3.30
2023-05-22T21:38:24.677Z,4.45
2023-05-22T21:41:22.693Z,3.30
2023-05-22T21:44:20.635Z,3.78
2023-05-22T21:47:18.726Z,3.55
2023-05-22T21:50:16.734Z,4.30
2023-05-22T21:53:17.716Z,3.92
2023-05-22T21:56:15.749Z,3.80
2023-05-22T21:59:13.828Z,3.83
2023-05-22T22:02:14.353Z,3.40
2023-05-22T22:05:12.467Z,3.72
2023-05-22T22:08:10.402Z,4.13
2023-05-22T22:11:08.432Z,3.85
2023-05-22T22:14:07.719Z,3.75
2023-05-22T22:17:06.491Z,4.03
2023-05-22T22:20:06.175Z,4.13
2023-05-22T22:23:04.177Z,3.95
2023-05-22T22:26:02.247Z,4.30
2023-05-22T22:29:00.273Z,3.92
2023-05-22T22:31:58.213Z,4.60
2023-05-22T22:34:56.245Z,4.00
2023-05-22T22:37:54.117Z,4.13
2023-05-22T22:40:52.372Z,3.78
2023-05-22T22:43:51.029Z,3.97
2023-05-22T22:46:50.243Z,3.95
2023-05-22T22:49:48.135Z,4.00
2023-05-22T22:52:46.198Z,4.05
2023-05-22T22:55:44.311Z,3.90
2023-05-22T22:58:42.454Z,3.85
2023-05-22T23:01:40.424Z,3.90
2023-05-22T23:04:38.583Z,3.97
2023-05-22T23:07:36.737Z,4.50
2023-05-22T23:10:34.749Z,4.10
2023-05-22T23:13:32.743Z,3.33
2023-05-22T23:16:31.228Z,5.20
2023-05-22T23:19:29.253Z,4.18
2023-05-22T23:22:27.353Z,4.32
2023-05-22T23:25:25.295Z,4.53
2023-05-22T23:28:23.316Z,4.10
2023-05-22T23:31:26.497Z,4.60
2023-05-22T23:34:24.488Z,4.72
2023-05-22T23:37:22.429Z,4.75
2023-05-22T23:40:20.392Z,4.95
2023-05-22T23:43:20.716Z,5.25
2023-05-22T23:46:21.786Z,4.95
2023-05-22T23:49:19.693Z,5.88
2023-05-22T23:52:17.760Z,5.97
2023-05-22T23:55:16.203Z,5.93
2023-05-22T23:58:14.353Z,6.43
